Terminal Aerodrome Forecast
Issued by NWS

Home | Current Version | Previous Version | Text Only | Print | Product List | Glossary On
Versions: 1 2 3 4 5 6 7 8 9 10 11 12 13 14
000
FTUS43 KAPX 312329
TAFTVC
TAF
KTVC 312329Z 0100/0124 36016G28KT P6SM -SHSN OVC035
     FM010300 01011G19KT P6SM BKN035
     FM010800 01009KT P6SM SCT035
     FM011400 01008KT P6SM FEW035=

USA.gov is the U.S. government's official web portal to all federal, state and local government web resources and services.